createdAt,value
2023-04-15T00:02:29.852Z,8.73
2023-04-15T00:07:32.183Z,10.32
2023-04-15T00:12:34.348Z,9.00
2023-04-15T00:17:38.601Z,9.75
2023-04-15T00:22:40.931Z,11.23
2023-04-15T00:27:43.218Z,10.30
2023-04-15T00:32:45.860Z,11.30
2023-04-15T00:37:48.172Z,11.32
2023-04-15T00:42:50.974Z,10.65
2023-04-15T00:47:53.236Z,12.35
2023-04-15T00:52:55.439Z,10.82
2023-04-15T00:57:58.137Z,11.45
2023-04-15T01:03:00.926Z,11.73
2023-04-15T01:08:03.925Z,12.93
2023-04-15T01:13:06.110Z,13.60
2023-04-15T01:18:09.809Z,11.73
2023-04-15T01:23:13.613Z,11.43
2023-04-15T01:28:16.335Z,13.77
2023-04-15T01:33:18.695Z,12.95
2023-04-15T01:38:41.411Z,13.35
2023-04-15T01:43:43.647Z,17.08
2023-04-15T01:48:47.491Z,15.43
2023-04-15T01:53:51.274Z,17.88
2023-04-15T01:58:54.756Z,17.70
2023-04-15T02:03:58.659Z,18.88
2023-04-15T02:09:02.294Z,22.75
2023-04-15T02:14:06.574Z,20.85
2023-04-15T02:19:10.091Z,19.67
2023-04-15T02:24:14.473Z,20.63
2023-04-15T02:29:18.020Z,20.08
2023-04-15T02:34:21.669Z,18.75
2023-04-15T02:39:25.204Z,19.67
2023-04-15T02:44:28.988Z,17.90
2023-04-15T02:49:36.046Z,20.00
2023-04-15T02:54:39.543Z,20.00
2023-04-15T02:59:42.961Z,18.67
2023-04-15T03:04:46.642Z,19.00
2023-04-15T03:09:50.179Z,19.20
2023-04-15T03:14:53.907Z,19.83
2023-04-15T03:20:05.441Z,17.85
2023-04-15T03:25:09.741Z,15.70
2023-04-15T03:30:14.353Z,16.05
2023-04-15T03:35:18.416Z,19.88
2023-04-15T03:40:22.457Z,16.75
2023-04-15T03:45:26.312Z,17.40
2023-04-15T03:50:29.678Z,18.23
2023-04-15T03:55:33.098Z,18.35
2023-04-15T04:00:36.721Z,17.60
2023-04-15T04:05:41.751Z,19.27
2023-04-15T04:10:45.183Z,19.48
2023-04-15T04:15:48.648Z,20.08
2023-04-15T04:20:52.165Z,20.00
2023-04-15T04:25:55.616Z,18.42
2023-04-15T04:30:59.058Z,20.23
2023-04-15T04:36:02.463Z,21.08
2023-04-15T04:41:06.510Z,21.67
2023-04-15T04:46:10.574Z,22.30
2023-04-15T04:51:14.011Z,19.15
2023-04-15T04:56:17.381Z,17.27
2023-04-15T05:01:21.054Z,17.83
2023-04-15T05:06:24.768Z,18.98
2023-04-15T05:11:28.547Z,16.38
2023-04-15T05:16:31.987Z,16.35
2023-04-15T05:21:37.588Z,19.67
2023-04-15T05:26:42.962Z,18.92
2023-04-15T05:31:46.410Z,20.70
2023-04-15T05:36:49.973Z,20.30
2023-04-15T05:41:53.466Z,19.55
2023-04-15T05:46:57.135Z,19.00
2023-04-15T05:52:00.908Z,17.77
2023-04-15T05:57:04.377Z,19.85
2023-04-15T06:02:07.918Z,18.92
2023-04-15T06:07:12.002Z,38.17
2023-04-15T06:12:15.903Z,22.83
2023-04-15T06:17:19.564Z,20.48
2023-04-15T06:22:23.776Z,50.28
2023-04-15T06:27:27.143Z,21.85
2023-04-15T06:32:30.646Z,21.80
2023-04-15T06:37:34.146Z,20.13
2023-04-15T06:42:38.508Z,23.98
2023-04-15T06:47:42.268Z,29.35
2023-04-15T06:52:46.055Z,39.60
2023-04-15T06:57:49.481Z,65.68
2023-04-15T07:02:52.979Z,17.85
2023-04-15T07:07:57.450Z,12.98
2023-04-15T07:13:01.938Z,12.15
2023-04-15T07:18:05.441Z,12.60
2023-04-15T07:23:08.951Z,14.00
2023-04-15T07:28:12.336Z,12.98
2023-04-15T07:33:15.965Z,13.82
2023-04-15T07:38:19.417Z,12.80
2023-04-15T07:43:22.852Z,11.85
2023-04-15T07:48:26.706Z,10.30
2023-04-15T07:53:30.575Z,12.50
2023-04-15T07:58:33.944Z,14.35
2023-04-15T08:03:37.839Z,12.23
2023-04-15T08:08:41.863Z,12.38
2023-04-15T08:13:45.574Z,10.30
2023-04-15T08:18:50.263Z,9.73
2023-04-15T08:23:54.817Z,9.57
2023-04-15T08:28:58.502Z,8.90
2023-04-15T08:34:02.047Z,8.68
2023-04-15T08:39:05.547Z,9.93
2023-04-15T08:44:09.651Z,7.47
2023-04-15T08:49:13.665Z,8.18
2023-04-15T08:54:17.247Z,7.15
2023-04-15T08:59:22.297Z,14.15
2023-04-15T09:04:25.700Z,15.10
2023-04-15T09:09:29.330Z,16.33
2023-04-15T09:14:34.199Z,9.98
2023-04-15T09:19:37.839Z,17.17
2023-04-15T09:24:43.511Z,8.02
2023-04-15T09:29:50.844Z,8.25
2023-04-15T09:34:54.292Z,9.15
2023-04-15T09:39:57.689Z,10.25
2023-04-15T09:45:12.257Z,8.10
2023-04-15T09:50:16.345Z,7.18
2023-04-15T09:55:22.712Z,7.88
2023-04-15T10:00:26.299Z,7.75
2023-04-15T10:05:31.330Z,7.65
2023-04-15T10:10:35.023Z,8.52
2023-04-15T10:15:38.956Z,7.72
2023-04-15T10:20:43.143Z,9.05
2023-04-15T10:25:52.033Z,26.63
2023-04-15T10:30:57.459Z,40.17
2023-04-15T10:36:02.109Z,12.45
2023-04-15T10:41:21.990Z,7.45
2023-04-15T10:46:44.824Z,7.40
2023-04-15T10:51:59.061Z,6.85
2023-04-15T10:57:03.022Z,6.30
2023-04-15T11:02:07.865Z,4.88
2023-04-15T11:07:11.401Z,8.50
2023-04-15T11:12:14.907Z,6.90
2023-04-15T11:17:31.324Z,18.20
2023-04-15T11:22:34.798Z,35.10
2023-04-15T11:27:38.542Z,16.70
2023-04-15T11:32:45.114Z,8.32
2023-04-15T11:37:50.588Z,7.13
2023-04-15T11:43:11.550Z,8.77
2023-04-15T11:48:15.709Z,8.02
2023-04-15T11:53:19.438Z,9.27
2023-04-15T11:58:26.910Z,10.65
2023-04-15T12:03:36.230Z,11.32
2023-04-15T12:09:06.589Z,12.20
2023-04-15T12:14:13.314Z,14.02
2023-04-15T12:19:18.694Z,11.20
2023-04-15T12:24:23.217Z,14.65
2023-04-15T12:29:28.592Z,14.40
2023-04-15T12:34:39.377Z,17.38
2023-04-15T12:39:43.967Z,15.73
2023-04-15T12:44:47.213Z,20.35
2023-04-15T12:49:49.866Z,19.33
2023-04-15T12:54:53.711Z,24.33
2023-04-15T12:59:56.434Z,31.95
2023-04-15T13:05:01.946Z,28.52
2023-04-15T13:10:04.788Z,28.55
2023-04-15T13:15:09.603Z,34.28
2023-04-15T13:20:13.239Z,26.50
2023-04-15T13:25:15.796Z,34.45
2023-04-15T13:30:18.332Z,50.13
2023-04-15T13:35:21.602Z,40.00
2023-04-15T13:40:24.058Z,35.58
2023-04-15T13:45:27.284Z,38.03
2023-04-15T13:50:29.686Z,44.65
2023-04-15T13:55:32.007Z,50.97
2023-04-15T14:00:34.289Z,46.42
2023-04-15T14:05:36.627Z,48.90
2023-04-15T14:10:38.886Z,50.08
2023-04-15T14:15:41.874Z,56.67
2023-04-15T14:20:44.413Z,56.75
2023-04-15T14:25:48.291Z,54.83
2023-04-15T14:30:51.279Z,57.97
2023-04-15T14:35:53.708Z,49.75
2023-04-15T14:40:56.200Z,50.45
2023-04-15T14:45:58.694Z,50.78
2023-04-15T14:51:04.393Z,48.13
2023-04-15T14:56:07.215Z,50.63
2023-04-15T15:01:10.133Z,48.25
2023-04-15T15:06:12.564Z,52.50
2023-04-15T15:11:14.828Z,45.72
2023-04-15T15:16:17.626Z,45.90
2023-04-15T15:21:20.064Z,49.40
2023-04-15T15:26:25.558Z,103.60
2023-04-15T15:31:28.012Z,53.25
2023-04-15T15:36:31.893Z,41.35
2023-04-15T15:41:34.427Z,42.30
2023-04-15T15:46:37.158Z,43.88
2023-04-15T15:51:39.887Z,43.75
2023-04-15T15:56:42.615Z,40.90
2023-04-15T16:01:45.110Z,41.28
2023-04-15T16:06:49.018Z,40.55
2023-04-15T16:11:51.513Z,43.55
2023-04-15T16:16:54.360Z,44.45
2023-04-15T16:21:57.030Z,46.67
2023-04-15T16:26:59.553Z,39.78
2023-04-15T16:32:01.856Z,43.75
2023-04-15T16:37:04.141Z,43.42
2023-04-15T16:42:07.533Z,46.70
2023-04-15T16:47:18.165Z,43.80
2023-04-15T16:52:20.430Z,42.10
2023-04-15T16:57:22.649Z,45.67
2023-04-15T17:02:26.913Z,36.95
2023-04-15T17:07:29.160Z,39.75
2023-04-15T17:12:32.019Z,39.28
2023-04-15T17:17:34.616Z,39.65
2023-04-15T17:22:37.003Z,37.80
2023-04-15T17:27:39.531Z,31.73
2023-04-15T17:32:48.614Z,34.60
2023-04-15T17:38:10.928Z,35.85
2023-04-15T17:43:33.035Z,37.92
2023-04-15T17:48:55.432Z,37.88
2023-04-15T17:54:17.644Z,32.55
2023-04-15T17:59:44.117Z,37.22
2023-04-15T18:05:06.803Z,38.35
2023-04-15T18:10:28.998Z,35.47
2023-04-15T18:15:52.165Z,35.10
2023-04-15T18:21:15.577Z,36.90
2023-04-15T18:26:18.699Z,32.40
2023-04-15T18:31:22.230Z,31.35
2023-04-15T18:36:25.576Z,32.00
2023-04-15T18:41:28.667Z,33.65
2023-04-15T18:46:31.934Z,36.15
2023-04-15T18:51:34.969Z,29.55
2023-04-15T18:56:37.797Z,31.70
2023-04-15T19:01:40.853Z,34.50
2023-04-15T19:06:44.077Z,33.25
2023-04-15T19:11:46.440Z,33.35
2023-04-15T19:16:49.091Z,34.03
2023-04-15T19:21:53.869Z,33.42
2023-04-15T19:26:58.444Z,37.10
2023-04-15T19:32:02.163Z,33.42
2023-04-15T19:37:05.256Z,33.28
2023-04-15T19:42:08.303Z,33.55
2023-04-15T19:47:11.740Z,44.13
2023-04-15T19:52:14.608Z,77.55
2023-04-15T19:57:17.077Z,80.07
2023-04-15T20:02:21.550Z,34.17
2023-04-15T20:07:23.906Z,32.72
2023-04-15T20:12:50.160Z,29.23
2023-04-15T20:17:49.874Z,30.98
2023-04-15T20:22:53.305Z,33.22
2023-04-15T20:28:00.395Z,38.50
2023-04-15T20:33:05.200Z,49.67
2023-04-15T20:38:07.365Z,40.85
2023-04-15T20:43:09.515Z,32.20
2023-04-15T20:48:11.802Z,33.03
2023-04-15T20:53:14.003Z,33.45
2023-04-15T20:58:16.275Z,31.00
2023-04-15T21:03:18.603Z,33.88
2023-04-15T21:08:29.237Z,37.65
2023-04-15T21:13:31.509Z,32.10
2023-04-15T21:18:33.697Z,34.03
2023-04-15T21:23:36.165Z,29.27
2023-04-15T21:28:39.400Z,26.25
2023-04-15T21:33:41.575Z,29.48
2023-04-15T21:38:43.802Z,29.27
2023-04-15T21:43:46.124Z,27.35
2023-04-15T21:48:48.400Z,30.10
2023-04-15T21:53:50.892Z,30.50
2023-04-15T21:58:59.421Z,31.42
2023-04-15T22:04:01.919Z,30.15
2023-04-15T22:09:04.266Z,28.90
2023-04-15T22:14:06.557Z,31.33
2023-04-15T22:19:09.877Z,28.38
2023-04-15T22:24:39.129Z,30.13
2023-04-15T22:29:35.206Z,31.15
2023-04-15T22:34:37.360Z,32.10
2023-04-15T22:39:39.610Z,29.02
2023-04-15T22:44:41.962Z,30.52
2023-04-15T22:49:45.096Z,33.92
2023-04-15T22:54:47.304Z,30.20
2023-04-15T22:59:49.535Z,32.15
2023-04-15T23:04:51.900Z,30.45
2023-04-15T23:09:54.161Z,31.10
2023-04-15T23:14:56.298Z,34.05
2023-04-15T23:19:58.484Z,31.17
2023-04-15T23:25:00.890Z,30.58
2023-04-15T23:30:03.565Z,31.58
2023-04-15T23:35:06.322Z,31.60
2023-04-15T23:40:09.048Z,30.52
2023-04-15T23:45:11.979Z,31.42
2023-04-15T23:50:14.142Z,32.85
2023-04-15T23:55:16.385Z,33.88
